Time;durP1;ratioP1;P1;durP2;ratioP2;P2;SDS_P1;SDS_P2;PMS_P1;PMS_P2;Temp;Humidity;BMP_temperature;BMP_pressure;BME280_temperature;BME280_humidity;BME280_pressure;Samples;Min_cycle;Max_cycle;Signal;HPM_P1;HPM_P2
2023/10/03 00:00:31;;;;;;;4.75;0.45;;;;;;;14.84;60.00;100540.12;5264488;27;20053;-95
2023/10/03 00:02:57;;;;;;;0.00;0.00;;;;;;;14.86;60.00;100536.53;5268061;27;20060;-93
2023/10/03 00:05:45;;;;;;;0.00;0.00;;;;;;;14.76;59.99;100532.56;5285680;27;20065;-95
2023/10/03 00:08:10;;;;;;;0.45;0.40;;;;;;;14.80;60.00;100539.38;5282435;27;20068;-95
2023/10/03 00:10:38;;;;;;;0.52;0.52;;;;;;;14.66;59.99;100539.03;5264478;27;20049;-95
2023/10/03 00:13:11;;;;;;;0.30;0.22;;;;;;;14.64;59.99;100539.06;5264492;27;20068;-95
2023/10/03 00:15:39;;;;;;;1.10;0.20;;;;;;;14.53;59.98;100545.63;5265645;27;20434;-95
2023/10/03 00:18:05;;;;;;;1.02;0.70;;;;;;;14.54;59.98;100536.84;5282654;27;20066;-95
2023/10/03 00:20:31;;;;;;;0.00;0.00;;;;;;;14.50;59.98;100532.66;5264442;27;20210;-94
2023/10/03 00:22:56;;;;;;;0.20;0.20;;;;;;;14.46;59.98;100529.28;5264066;27;20108;-96
2023/10/03 00:25:24;;;;;;;0.10;0.10;;;;;;;14.51;59.98;100527.34;5264451;27;20119;-96
2023/10/03 00:27:51;;;;;;;0.00;0.00;;;;;;;14.59;59.98;100527.06;5264711;27;20064;-95
2023/10/03 00:30:20;;;;;;;0.10;0.10;;;;;;;14.49;59.98;100529.16;5263869;27;20139;-94
2023/10/03 00:32:46;;;;;;;0.10;0.10;;;;;;;14.47;59.98;100519.66;5263906;27;20057;-95
2023/10/03 00:35:12;;;;;;;1.48;0.52;;;;;;;14.49;59.98;100516.06;5281880;27;20107;-96
2023/10/03 00:37:38;;;;;;;0.80;0.60;;;;;;;14.48;59.98;100510.88;5282470;27;20048;-96
2023/10/03 00:40:16;;;;;;;0.00;0.00;;;;;;;14.53;59.98;100514.19;5264552;27;20046;-96
2023/10/03 00:42:44;;;;;;;0.28;0.28;;;;;;;14.35;59.98;100507.81;5267376;27;20061;-96
2023/10/03 00:45:10;;;;;;;1.95;0.32;;;;;;;14.41;59.99;100504.97;5264816;27;20057;-96
2023/10/03 00:47:35;;;;;;;0.37;0.37;;;;;;;14.33;59.98;100505.25;5265076;27;20057;-96
2023/10/03 00:50:03;;;;;;;0.10;0.10;;;;;;;14.32;59.97;100502.69;5265343;27;20071;-96
2023/10/03 00:52:30;;;;;;;0.15;0.15;;;;;;;14.32;59.96;100497.44;5266211;27;20057;-96
2023/10/03 00:54:58;;;;;;;6.35;1.42;;;;;;;14.47;59.97;100496.09;5265496;27;20064;-96
2023/10/03 00:57:24;;;;;;;0.85;0.62;;;;;;;14.36;59.97;100494.66;5265359;27;20071;-96
2023/10/03 00:59:50;;;;;;;0.00;0.00;;;;;;;14.35;59.97;100502.56;5264936;27;20045;-96
2023/10/03 01:02:15;;;;;;;0.22;0.22;;;;;;;14.42;59.98;100490.94;5264907;27;20075;-96
2023/10/03 01:04:41;;;;;;;0.00;0.00;;;;;;;14.41;59.98;100495.34;5264702;27;20079;-96
2023/10/03 01:07:07;;;;;;;0.65;0.43;;;;;;;14.28;59.97;100491.47;5264862;27;20057;-96
2023/10/03 01:09:33;;;;;;;0.30;0.30;;;;;;;14.36;59.97;100484.19;5264608;27;20057;-96
2023/10/03 01:11:59;;;;;;;1.10;0.85;;;;;;;14.14;59.96;100481.47;5264947;27;20116;-96
2023/10/03 01:14:26;;;;;;;0.60;0.55;;;;;;;14.05;59.96;100488.78;5268470;27;20061;-96
2023/10/03 01:16:52;;;;;;;0.08;0.08;;;;;;;14.19;59.96;100475.19;5269076;27;20071;-96
2023/10/03 01:19:24;;;;;;;0.00;0.00;;;;;;;14.11;59.96;100478.09;5267707;27;20107;-96
2023/10/03 01:21:50;;;;;;;1.17;0.73;;;;;;;14.09;59.95;100474.69;5269977;27;20044;-96
2023/10/03 01:24:24;;;;;;;0.00;0.00;;;;;;;13.97;59.95;100477.75;5267548;27;20108;-95
2023/10/03 01:26:52;;;;;;;1.98;0.75;;;;;;;14.09;59.96;100475.53;5269689;27;20066;-95
2023/10/03 01:29:18;;;;;;;1.87;0.25;;;;;;;13.99;59.95;100479.38;5267941;27;20068;-95
2023/10/03 01:31:43;;;;;;;0.10;0.10;;;;;;;14.04;59.95;100482.69;5270728;27;20025;-95
2023/10/03 01:34:09;;;;;;;0.70;0.20;;;;;;;14.08;59.95;100473.81;5269208;27;20048;-96
2023/10/03 01:36:34;;;;;;;0.00;0.00;;;;;;;14.00;59.94;100477.63;5267812;27;20102;-96
2023/10/03 01:39:00;;;;;;;0.00;0.00;;;;;;;13.96;59.95;100473.38;5285227;27;20070;-95
2023/10/03 01:41:26;;;;;;;0.20;0.20;;;;;;;13.92;59.94;100469.16;5267236;27;20096;-94
2023/10/03 01:43:52;;;;;;;1.27;1.12;;;;;;;14.10;59.96;100469.38;5267334;27;20060;-94
2023/10/03 01:46:20;;;;;;;0.32;0.30;;;;;;;13.96;59.95;100471.66;5267337;27;20136;-94
2023/10/03 01:48:45;;;;;;;0.00;0.00;;;;;;;13.90;59.95;100465.75;5267508;27;20067;-94
2023/10/03 01:51:10;;;;;;;0.00;0.00;;;;;;;13.81;59.94;100465.16;5266783;27;20077;-95
2023/10/03 01:53:37;;;;;;;0.00;0.00;;;;;;;13.88;59.95;100464.94;5266635;27;21569;-93
2023/10/03 01:56:03;;;;;;;0.15;0.15;;;;;;;13.87;59.94;100476.31;5266899;27;20157;-96
2023/10/03 01:58:30;;;;;;;0.30;0.30;;;;;;;13.81;59.94;100467.78;5267207;27;20163;-92
2023/10/03 02:00:56;;;;;;;0.10;0.10;;;;;;;13.74;59.94;100466.28;5266991;27;20060;-94
2023/10/03 02:03:22;;;;;;;0.40;0.40;;;;;;;13.88;59.95;100464.94;5266913;27;20120;-95
2023/10/03 02:05:48;;;;;;;0.20;0.20;;;;;;;13.90;59.95;100463.13;5267084;27;20435;-95
2023/10/03 02:08:15;;;;;;;0.08;0.08;;;;;;;13.86;59.94;100451.91;5266494;27;20100;-95
2023/10/03 02:10:43;;;;;;;3.65;1.37;;;;;;;13.81;59.94;100448.59;5267135;27;20069;-93
2023/10/03 02:13:12;;;;;;;0.30;0.30;;;;;;;13.79;59.94;100448.66;5265915;27;20159;-93
2023/10/03 02:15:38;;;;;;;0.00;0.00;;;;;;;13.76;59.94;100448.78;5267278;27;20123;-93
2023/10/03 02:18:05;;;;;;;0.20;0.20;;;;;;;13.82;59.94;100445.09;5302934;27;20068;-93
2023/10/03 02:20:31;;;;;;;0.30;0.30;;;;;;;13.91;59.95;100444.75;5285394;27;20060;-93
2023/10/03 02:22:57;;;;;;;0.00;0.00;;;;;;;13.86;59.94;100443.22;5266955;27;20079;-94
2023/10/03 02:25:28;;;;;;;0.00;0.00;;;;;;;13.73;59.94;100442.78;5266670;27;20060;-94
2023/10/03 02:27:54;;;;;;;0.10;0.10;;;;;;;13.89;59.95;100443.09;5267147;27;20128;-94
2023/10/03 02:30:23;;;;;;;0.82;0.57;;;;;;;13.94;59.94;100438.56;5266482;27;20123;-92
2023/10/03 02:32:57;;;;;;;1.20;1.10;;;;;;;13.87;59.94;100434.44;5266856;27;20724;-92
2023/10/03 02:35:26;;;;;;;0.30;0.30;;;;;;;14.00;59.95;100438.38;5285040;27;20092;-93
2023/10/03 02:37:52;;;;;;;3.30;1.87;;;;;;;13.92;59.95;100438.62;5285519;27;20059;-96
2023/10/03 02:40:27;;;;;;;0.10;0.10;;;;;;;13.83;59.94;100434.56;5266873;27;20402;-95
2023/10/03 02:42:53;;;;;;;0.28;0.28;;;;;;;13.90;59.95;100429.97;5268516;27;20075;-96
2023/10/03 02:45:22;;;;;;;0.00;0.00;;;;;;;13.91;59.95;100430.81;5267495;27;20056;-94
2023/10/03 02:47:48;;;;;;;0.57;0.57;;;;;;;13.83;59.94;100426.72;5267558;27;20048;-94
2023/10/03 02:50:15;;;;;;;0.75;0.20;;;;;;;13.78;59.93;100426.03;5266858;27;20064;-94
2023/10/03 02:52:41;;;;;;;0.80;0.80;;;;;;;13.86;59.93;100428.38;5266982;27;20443;-94
2023/10/03 02:55:12;;;;;;;0.22;0.22;;;;;;;13.87;59.94;100430.06;5266725;27;20132;-95
2023/10/03 02:57:38;;;;;;;1.00;1.00;;;;;;;13.92;59.94;100416.81;5302986;27;20444;-95
2023/10/03 03:00:14;;;;;;;0.20;0.20;;;;;;;13.99;59.94;100419.19;5266601;27;20060;-94
2023/10/03 03:02:46;;;;;;;3.40;1.55;;;;;;;14.03;59.96;100422.56;5269622;27;20064;-94
2023/10/03 03:05:15;;;;;;;0.20;0.20;;;;;;;13.91;59.95;100415.97;5267728;27;20436;-94
2023/10/03 03:07:42;;;;;;;2.90;2.03;;;;;;;13.98;59.95;100425.34;5267937;27;20076;-95
2023/10/03 03:10:08;;;;;;;0.88;0.82;;;;;;;14.01;59.95;100422.59;5266691;27;20092;-95
2023/10/03 03:12:35;;;;;;;0.85;0.52;;;;;;;14.00;59.95;100418.28;5263109;27;20060;-94
2023/10/03 03:15:01;;;;;;;0.37;0.37;;;;;;;14.06;59.95;100415.44;5263033;27;20057;-91
2023/10/03 03:17:27;;;;;;;0.32;0.32;;;;;;;13.98;59.94;100417.47;5262182;27;20075;-93
2023/10/03 03:19:55;;;;;;;0.43;0.43;;;;;;;13.96;59.95;100411.44;5262361;27;20061;-94
2023/10/03 03:22:21;;;;;;;1.37;1.12;;;;;;;13.95;59.94;100411.47;5263272;27;20471;-94
2023/10/03 03:24:51;;;;;;;1.25;0.70;;;;;;;13.96;59.95;100410.56;5281472;27;20056;-94
2023/10/03 03:27:17;;;;;;;0.37;0.20;;;;;;;13.95;59.94;100412.31;5264194;27;20069;-94
2023/10/03 03:30:22;;;;;;;0.35;0.10;;;;;;;13.86;59.94;100406.56;5263775;27;20403;-95
2023/10/03 03:32:41;;;;;;;0.15;0.15;;;;;;;13.92;59.94;100416.81;5286982;27;20029;-95
2023/10/03 03:35:09;;;;;;;0.00;0.00;;;;;;;13.94;59.94;100415.00;5299357;27;20722;-95
2023/10/03 03:37:37;;;;;;;0.03;0.03;;;;;;;13.91;59.95;100418.59;5263602;27;20068;-95
2023/10/03 03:40:12;;;;;;;0.20;0.17;;;;;;;13.86;59.94;100417.03;5263992;27;20469;-95
2023/10/03 03:42:37;;;;;;;1.25;0.45;;;;;;;13.85;59.93;100413.56;5265284;27;20029;-94
2023/10/03 03:45:04;;;;;;;0.20;0.20;;;;;;;13.75;59.94;100405.19;5263369;27;20141;-93
2023/10/03 03:47:31;;;;;;;0.62;0.62;;;;;;;14.05;59.95;100399.78;5264956;27;20064;-96
2023/10/03 03:49:56;;;;;;;2.03;0.52;;;;;;;13.89;59.95;100396.84;5265555;27;20049;-95
2023/10/03 03:52:22;;;;;;;0.10;0.10;;;;;;;13.86;59.94;100402.19;5264960;27;20057;-95
2023/10/03 03:54:49;;;;;;;0.75;0.75;;;;;;;13.71;59.93;100400.94;5264923;27;20060;-94
2023/10/03 03:57:16;;;;;;;0.05;0.05;;;;;;;13.63;59.93;100404.75;5264991;27;20061;-96
2023/10/03 03:59:42;;;;;;;0.20;0.20;;;;;;;13.78;59.93;100402.47;5264967;27;20088;-96
2023/10/03 04:02:09;;;;;;;0.35;0.35;;;;;;;13.72;59.92;100397.47;5264154;27;20109;-95
2023/10/03 04:04:34;;;;;;;0.20;0.20;;;;;;;13.72;59.92;100394.84;5265134;27;20087;-96
2023/10/03 04:07:00;;;;;;;0.35;0.35;;;;;;;13.69;59.93;100397.53;5264420;27;20041;-95
2023/10/03 04:09:25;;;;;;;1.23;0.70;;;;;;;13.62;59.92;100401.28;5264195;27;20103;-94
2023/10/03 04:11:51;;;;;;;0.30;0.30;;;;;;;13.51;59.93;100396.44;5263024;27;20058;-94
2023/10/03 04:14:17;;;;;;;0.43;0.32;;;;;;;13.46;59.92;100402.69;5263795;27;20049;-95
2023/10/03 04:16:43;;;;;;;0.30;0.10;;;;;;;13.37;59.92;100388.16;5264249;27;20074;-94
2023/10/03 04:19:10;;;;;;;2.00;0.55;;;;;;;13.57;59.92;100387.50;5263622;27;20065;-95
2023/10/03 04:21:36;;;;;;;0.10;0.10;;;;;;;13.45;59.92;100390.53;5264032;27;20785;-96
2023/10/03 04:24:02;;;;;;;0.00;0.00;;;;;;;13.34;59.90;100392.66;5264509;27;20068;-95
2023/10/03 04:26:28;;;;;;;0.95;0.70;;;;;;;13.38;59.92;100392.50;5282777;27;20048;-96
2023/10/03 04:28:54;;;;;;;0.00;0.00;;;;;;;13.35;59.92;100395.22;5267538;27;20026;-96
2023/10/03 04:31:19;;;;;;;0.10;0.10;;;;;;;13.28;59.91;100395.47;5264560;27;20059;-95
2023/10/03 04:33:45;;;;;;;0.15;0.10;;;;;;;13.20;59.91;100390.47;5264721;27;20067;-96
2023/10/03 04:36:15;;;;;;;3.12;0.95;;;;;;;13.27;59.92;100392.00;5264243;27;20037;-95
2023/10/03 04:38:40;;;;;;;2.20;0.40;;;;;;;13.34;59.90;100393.50;5284193;27;20058;-94
2023/10/03 04:41:09;;;;;;;0.20;0.20;;;;;;;13.33;59.91;100389.19;5263809;27;20178;-94
2023/10/03 04:43:34;;;;;;;1.40;1.08;;;;;;;13.31;59.91;100393.63;5264145;27;20067;-94
2023/10/03 04:46:01;;;;;;;0.75;0.50;;;;;;;13.31;59.91;100392.75;5263938;27;20060;-94
2023/10/03 04:48:28;;;;;;;0.62;0.62;;;;;;;13.25;59.91;100388.59;5282015;27;20071;-93
2023/10/03 04:50:53;;;;;;;0.30;0.30;;;;;;;13.30;59.91;100397.13;5264080;27;20376;-93
2023/10/03 04:53:19;;;;;;;0.10;0.10;;;;;;;13.28;59.91;100393.72;5280426;27;24226;-94
2023/10/03 04:55:47;;;;;;;2.35;0.30;;;;;;;13.13;59.91;100392.41;5281116;27;20045;-94
2023/10/03 04:58:12;;;;;;;0.85;0.85;;;;;;;13.19;59.90;100391.38;5263819;27;20123;-94
2023/10/03 05:00:38;;;;;;;0.00;0.00;;;;;;;13.27;59.91;100392.00;5263139;27;20082;-95
2023/10/03 05:03:04;;;;;;;0.10;0.10;;;;;;;13.28;59.91;100396.34;5263077;27;20077;-94
2023/10/03 05:05:30;;;;;;;0.22;0.22;;;;;;;13.20;59.91;100393.09;5263670;27;20068;-95
2023/10/03 05:07:58;;;;;;;0.15;0.15;;;;;;;13.31;59.91;100385.78;5263245;27;20096;-93
2023/10/03 05:10:24;;;;;;;0.32;0.32;;;;;;;13.32;59.91;100384.88;5264204;27;20061;-94
2023/10/03 05:12:52;;;;;;;0.65;0.65;;;;;;;13.38;59.91;100378.56;5262710;27;20099;-95
2023/10/03 05:15:18;;;;;;;0.10;0.10;;;;;;;13.42;59.92;100388.00;5264087;27;20103;-94
2023/10/03 05:17:44;;;;;;;1.98;1.12;;;;;;;13.33;59.91;100386.56;5299315;27;20112;-94
2023/10/03 05:20:13;;;;;;;0.00;0.00;;;;;;;13.42;59.92;100388.00;5263836;27;20057;-95
2023/10/03 05:22:40;;;;;;;0.00;0.00;;;;;;;13.46;59.92;100387.84;5263401;27;20092;-94
2023/10/03 05:25:07;;;;;;;0.10;0.10;;;;;;;13.56;59.92;100398.88;5263865;27;20049;-95
2023/10/03 05:27:33;;;;;;;0.43;0.43;;;;;;;13.62;59.92;100388.19;5262897;27;20060;-94
2023/10/03 05:30:05;;;;;;;0.40;0.30;;;;;;;13.60;59.92;100387.41;5263206;27;20100;-94
2023/10/03 05:32:31;;;;;;;1.17;1.17;;;;;;;13.92;59.94;100393.25;5265036;27;20410;-94
2023/10/03 05:34:58;;;;;;;0.00;0.00;;;;;;;13.99;59.95;100392.16;5263045;27;20067;-93
2023/10/03 05:37:24;;;;;;;0.37;0.37;;;;;;;14.00;59.94;100389.50;5262859;27;20072;-92
2023/10/03 05:39:49;;;;;;;0.25;0.10;;;;;;;14.08;59.95;100397.91;5262731;27;20125;-92
2023/10/03 05:42:17;;;;;;;4.37;1.17;;;;;;;14.19;59.96;100391.41;5262306;27;20064;-92
2023/10/03 05:44:44;;;;;;;0.10;0.10;;;;;;;14.41;59.98;100390.56;5262897;27;20079;-91
2023/10/03 05:47:09;;;;;;;0.62;0.62;;;;;;;14.54;59.98;100388.38;5262833;27;20074;-93
2023/10/03 05:49:34;;;;;;;0.05;0.05;;;;;;;14.70;59.98;100381.66;5263159;27;20159;-93
2023/10/03 05:52:00;;;;;;;0.88;0.47;;;;;;;14.77;59.99;100391.88;5263443;27;20101;-94
2023/10/03 05:54:26;;;;;;;2.05;0.62;;;;;;;14.91;59.99;100382.59;5263548;27;20148;-92
2023/10/03 05:56:51;;;;;;;0.32;0.32;;;;;;;15.06;60.01;100388.97;5263525;27;20072;-93
2023/10/03 05:59:18;;;;;;;0.45;0.30;;;;;;;15.21;60.01;100393.59;5281804;27;20080;-92
2023/10/03 06:01:43;;;;;;;1.08;1.00;;;;;;;15.28;60.02;100388.94;5263788;27;20128;-93
2023/10/03 06:04:09;;;;;;;1.27;0.95;;;;;;;15.53;60.02;100392.25;5263121;27;20040;-94
2023/10/03 06:06:34;;;;;;;0.25;0.25;;;;;;;15.68;60.04;100388.16;5261699;27;20103;-94
2023/10/03 06:09:00;;;;;;;1.27;0.90;;;;;;;15.79;60.04;100392.94;5280056;27;20079;-93
2023/10/03 06:11:25;;;;;;;0.60;0.57;;;;;;;15.86;60.04;100400.50;5280509;27;20120;-92
2023/10/03 06:13:51;;;;;;;1.52;0.60;;;;;;;16.13;60.06;100395.81;5262490;27;20080;-93
2023/10/03 06:16:17;;;;;;;0.65;0.65;;;;;;;16.18;60.06;100392.97;5262245;27;20080;-93
2023/10/03 06:18:42;;;;;;;1.17;1.08;;;;;;;16.35;60.07;100394.84;5262569;27;20065;-94
2023/10/03 06:21:08;;;;;;;0.62;0.62;;;;;;;16.40;60.08;100393.72;5262658;27;20389;-94
2023/10/03 06:23:34;;;;;;;0.47;0.47;;;;;;;16.60;60.09;100394.56;5262077;27;20097;-94
2023/10/03 06:26:00;;;;;;;0.75;0.35;;;;;;;16.67;60.09;100396.03;5298778;27;20073;-94
2023/10/03 06:28:26;;;;;;;1.55;1.08;;;;;;;16.70;60.10;100386.22;5262697;27;20423;-95
2023/10/03 06:30:52;;;;;;;0.82;0.82;;;;;;;16.99;60.10;100387.44;5262385;27;20068;-94
2023/10/03 06:33:17;;;;;;;0.40;0.40;;;;;;;17.10;60.12;100385.16;5263004;27;20092;-94
2023/10/03 06:35:43;;;;;;;1.35;0.65;;;;;;;17.27;60.12;100397.50;5262534;27;20085;-93
2023/10/03 06:38:08;;;;;;;1.35;1.25;;;;;;;17.29;60.12;100389.53;5262339;27;20327;-94
2023/10/03 06:40:34;;;;;;;3.55;3.22;;;;;;;17.30;60.12;100389.44;5262737;27;20477;-93
2023/10/03 06:42:59;;;;;;;0.93;0.93;;;;;;;17.44;60.13;100396.63;5262466;27;20075;-94
2023/10/03 06:45:25;;;;;;;0.50;0.50;;;;;;;17.59;60.14;100385.34;5262423;27;20135;-93
2023/10/03 06:47:50;;;;;;;0.90;0.90;;;;;;;17.77;60.14;100391.50;5262858;27;20065;-93
2023/10/03 06:50:17;;;;;;;0.98;0.57;;;;;;;17.87;60.15;100391.88;5262498;27;20097;-94
2023/10/03 06:52:43;;;;;;;0.05;0.05;;;;;;;18.04;60.16;100389.22;5263197;27;20128;-94
2023/10/03 06:55:11;;;;;;;0.90;0.90;;;;;;;18.10;60.17;100387.09;5263062;27;20124;-94
2023/10/03 06:57:38;;;;;;;0.40;0.40;;;;;;;18.09;60.17;100388.03;5263060;27;20135;-94
2023/10/03 07:00:04;;;;;;;0.57;0.57;;;;;;;18.10;60.17;100391.50;5262778;27;20745;-94
2023/10/03 07:02:29;;;;;;;1.30;0.90;;;;;;;18.31;60.17;100386.88;5262832;27;20049;-93
2023/10/03 07:04:55;;;;;;;1.33;0.93;;;;;;;18.46;60.18;100377.31;5261769;27;23454;-94
2023/10/03 07:07:20;;;;;;;4.28;1.30;;;;;;;18.49;60.19;100375.34;5280610;27;20053;-95
2023/10/03 07:09:46;;;;;;;1.40;0.65;;;;;;;18.68;60.19;100381.31;5262568;27;20092;-94
2023/10/03 07:12:11;;;;;;;3.45;1.60;;;;;;;18.78;60.20;100376.41;5281980;27;21657;-94
2023/10/03 07:14:37;;;;;;;0.20;0.20;;;;;;;18.90;60.21;100386.25;5284100;27;20108;-94
2023/10/03 07:17:03;;;;;;;0.73;0.57;;;;;;;18.85;60.19;100382.19;5266266;27;20116;-95
2023/10/03 07:19:31;;;;;;;1.00;0.77;;;;;;;18.85;60.21;100385.66;5266520;27;20071;-94
2023/10/03 07:21:57;;;;;;;0.65;0.60;;;;;;;18.99;60.21;100382.25;5266570;27;20071;-95
2023/10/03 07:24:24;;;;;;;6.28;2.08;;;;;;;19.15;60.22;100380.44;5266145;27;20065;-94
2023/10/03 07:26:50;;;;;;;1.42;1.23;;;;;;;19.31;60.22;100380.41;5266688;27;20174;-95
2023/10/03 07:29:17;;;;;;;0.20;0.20;;;;;;;19.41;60.24;100386.03;5283700;27;20420;-94
2023/10/03 07:31:42;;;;;;;0.98;0.93;;;;;;;19.46;60.23;100390.09;5266350;27;20405;-94
2023/10/03 07:34:08;;;;;;;2.17;1.90;;;;;;;19.51;60.24;100388.03;5266312;27;20087;-95
2023/10/03 07:36:33;;;;;;;0.70;0.70;;;;;;;19.63;60.25;100378.53;5266123;27;20345;-94
2023/10/03 07:38:59;;;;;;;1.35;1.25;;;;;;;19.72;60.26;100385.09;5265941;27;20124;-95
2023/10/03 07:41:24;;;;;;;0.22;0.17;;;;;;;19.74;60.25;100389.34;5284343;27;20322;-95
2023/10/03 07:43:52;;;;;;;3.45;0.77;;;;;;;19.82;60.25;100391.50;5266094;27;20088;-94
2023/10/03 07:46:27;;;;;;;0.62;0.62;;;;;;;20.12;60.28;100388.81;5266986;27;20114;-95
2023/10/03 07:48:53;;;;;;;0.10;0.10;;;;;;;20.00;60.26;100389.56;5267379;27;20068;-95
2023/10/03 07:51:19;;;;;;;0.60;0.30;;;;;;;20.21;60.27;100391.75;5265966;27;20390;-94
2023/10/03 07:53:46;;;;;;;0.32;0.32;;;;;;;20.18;60.28;100394.56;5266356;27;20064;-94
2023/10/03 07:56:25;;;;;;;17.35;0.43;;;;;;;20.18;60.28;100384.00;5266144;27;20075;-95
2023/10/03 07:58:54;;;;;;;0.32;0.32;;;;;;;20.54;60.29;100385.31;5302554;27;20452;-94
2023/10/03 08:01:26;;;;;;;0.20;0.20;;;;;;;20.59;60.30;100385.03;5284128;27;20603;-95
2023/10/03 08:03:54;;;;;;;0.73;0.73;;;;;;;20.57;60.30;100393.03;5285800;27;20065;-95
2023/10/03 08:06:24;;;;;;;0.00;0.00;;;;;;;20.89;60.32;100384.88;5266233;27;20064;-95
2023/10/03 08:08:53;;;;;;;1.70;0.85;;;;;;;21.02;60.31;100380.47;5266323;27;20104;-94
2023/10/03 08:11:22;;;;;;;0.50;0.50;;;;;;;20.96;60.32;100381.72;5265603;27;20135;-95
2023/10/03 08:13:49;;;;;;;0.45;0.45;;;;;;;21.09;60.33;100379.97;5266095;27;20100;-95
2023/10/03 08:16:15;;;;;;;1.15;1.02;;;;;;;21.25;60.34;100379.84;5266239;27;20080;-94
2023/10/03 08:18:46;;;;;;;0.30;0.20;;;;;;;21.48;60.34;100374.81;5266177;27;20072;-94
2023/10/03 08:21:12;;;;;;;1.17;0.98;;;;;;;21.55;60.35;100376.97;5268049;27;20048;-94
2023/10/03 08:23:38;;;;;;;0.20;0.20;;;;;;;21.62;60.35;100375.59;5266563;27;20060;-94
2023/10/03 08:26:03;;;;;;;1.30;1.20;;;;;;;21.66;60.35;100370.91;5266045;27;20082;-95
2023/10/03 08:28:30;;;;;;;5.55;1.52;;;;;;;21.71;60.36;100369.66;5265966;27;20468;-93
2023/10/03 08:30:56;;;;;;;4.62;2.03;;;;;;;21.92;60.36;100366.47;5265978;27;20049;-94
2023/10/03 08:33:22;;;;;;;0.90;0.80;;;;;;;21.87;60.37;100358.84;5266333;27;20069;-93
2023/10/03 08:35:48;;;;;;;0.98;0.88;;;;;;;22.11;60.38;100361.63;5265901;27;20061;-94
2023/10/03 08:38:14;;;;;;;0.40;0.30;;;;;;;22.28;60.39;100358.66;5266015;27;20052;-94
2023/10/03 08:40:45;;;;;;;0.40;0.40;;;;;;;22.31;60.39;100357.56;5265641;27;20366;-93
2023/10/03 08:43:11;;;;;;;0.10;0.10;;;;;;;22.30;60.39;100362.03;5266628;27;20099;-96
2023/10/03 08:45:41;;;;;;;0.82;0.82;;;;;;;22.36;60.40;100355.44;5265798;27;20078;-95
2023/10/03 08:48:07;;;;;;;;;;;;;;;22.56;60.40;100351.34;5266426;27;20421;-93
2023/10/03 08:50:39;;;;;;;0.50;0.50;;;;;;;22.69;60.41;100352.16;5302196;27;20023;-95
2023/10/03 08:53:16;;;;;;;1.52;1.35;;;;;;;22.82;60.41;100350.34;5266387;27;20075;-95
2023/10/03 08:55:48;;;;;;;1.15;1.05;;;;;;;22.87;60.42;100350.00;5269400;27;20042;-95
2023/10/03 08:58:14;;;;;;;2.80;1.42;;;;;;;23.04;60.42;100348.75;5283894;27;20075;-94
2023/10/03 09:00:49;;;;;;;0.65;0.65;;;;;;;23.17;60.43;100339.75;5265867;27;20087;-94
2023/10/03 09:03:16;;;;;;;1.23;1.12;;;;;;;23.35;60.45;100332.22;5265926;27;20068;-94
2023/10/03 09:05:42;;;;;;;0.20;0.20;;;;;;;23.34;60.44;100333.19;5284028;27;20068;-93
2023/10/03 09:08:12;;;;;;;1.52;1.42;;;;;;;23.28;60.45;100334.50;5265858;27;20071;-94
2023/10/03 09:10:53;;;;;;;0.57;0.55;;;;;;;23.74;60.46;100324.84;5302270;27;20044;-94
2023/10/03 09:13:25;;;;;;;0.77;0.77;;;;;;;23.68;60.46;100333.31;5285867;27;20073;-93
2023/10/03 09:16:07;;;;;;;0.05;0.05;;;;;;;23.73;60.46;100336.44;5267170;27;20139;-95
2023/10/03 09:18:42;;;;;;;0.93;0.88;;;;;;;23.81;60.46;100328.72;5269237;27;20071;-94
2023/10/03 09:21:23;;;;;;;0.00;0.00;;;;;;;23.92;60.48;100328.72;5268188;27;20115;-94
2023/10/03 09:24:01;;;;;;;1.45;1.00;;;;;;;24.11;60.48;100323.62;5288723;27;20088;-94
2023/10/03 09:27:29;;;;;;;0.65;0.37;;;;;;;24.25;60.49;100317.22;5285640;27;20166;-94
2023/10/03 09:29:32;;;;;;;0.32;0.32;;;;;;;24.09;60.48;100314.09;5290529;27;20722;-95
2023/10/03 09:32:12;;;;;;;0.80;0.65;;;;;;;24.47;60.51;100311.06;5268279;27;20049;-94
2023/10/03 09:34:40;;;;;;;0.17;0.17;;;;;;;24.62;60.51;100304.50;5269892;27;20129;-93
2023/10/03 09:37:06;;;;;;;0.73;0.73;;;;;;;24.88;60.52;100301.50;5266680;27;20199;-94
2023/10/03 09:39:39;;;;;;;0.93;0.57;;;;;;;25.04;60.53;100302.78;5266572;27;20098;-94
2023/10/03 09:42:06;;;;;;;1.20;0.93;;;;;;;25.02;60.53;100295.91;5268328;27;20056;-95
2023/10/03 09:44:37;;;;;;;1.25;0.95;;;;;;;25.14;60.55;100289.56;5266731;27;20080;-95
2023/10/03 09:47:09;;;;;;;0.28;0.28;;;;;;;25.23;60.55;100288.78;5267974;27;20072;-95
2023/10/03 09:49:38;;;;;;;5.90;0.68;;;;;;;25.38;60.54;100291.97;5268434;27;20065;-94
2023/10/03 09:52:26;;;;;;;1.30;0.55;;;;;;;25.50;60.55;100295.41;5267846;27;20049;-94
2023/10/03 09:54:56;;;;;;;2.08;0.57;;;;;;;25.73;60.57;100280.13;5269789;27;20069;-95
2023/10/03 09:57:21;;;;;;;;;;;;;;;25.78;60.58;100281.41;5285447;27;20068;-95
2023/10/03 09:59:48;;;;;;;0.37;0.37;;;;;;;26.00;60.58;100286.53;5302955;27;19970;-95
2023/10/03 10:02:19;;;;;;;0.90;0.50;;;;;;;25.90;60.58;100280.34;5266521;27;20102;-94
2023/10/03 10:04:56;;;;;;;1.85;0.50;;;;;;;26.04;60.58;100283.63;5267789;27;20035;-95
2023/10/03 10:07:33;;;;;;;0.30;0.30;;;;;;;26.18;60.60;100278.75;5269422;27;20060;-94
2023/10/03 10:10:12;;;;;;;2.67;0.52;;;;;;;26.42;60.61;100273.09;5285166;27;20068;-95
2023/10/03 10:12:37;;;;;;;1.35;0.85;;;;;;;26.53;60.61;100267.63;5266895;27;20064;-94
2023/10/03 10:18:10;;;;;;;0.20;0.20;;;;;;;26.67;60.62;100255.69;5322452;27;20040;-95
2023/10/03 10:20:49;;;;;;;;;;;;;;;;;;;;;
2023/10/03 10:23:17;;;;;;;1.05;0.82;;;;;;;26.90;60.64;100250.91;5287377;27;35950;-93
2023/10/03 10:25:51;;;;;;;0.65;0.65;;;;;;;26.82;60.63;100250.78;5266593;27;20076;-94
2023/10/03 10:28:32;;;;;;;2.25;1.23;;;;;;;27.10;60.63;100257.94;5268250;27;20061;-96
2023/10/03 10:31:21;;;;;;;0.20;0.10;;;;;;;27.14;60.65;100250.50;5267859;27;20422;-95
2023/10/03 10:33:50;;;;;;;0.62;0.62;;;;;;;27.25;60.64;100246.84;5303107;27;20060;-94
2023/10/03 10:39:57;;;;;;;0.17;0.17;;;;;;;27.43;60.65;100253.09;5306875;27;20723;-96
2023/10/03 10:42:35;;;;;;;0.10;0.10;;;;;;;27.62;60.67;100242.38;5302394;27;20060;-96
2023/10/03 10:48:43;;;;;;;0.40;0.40;;;;;;;27.66;60.67;100232.22;5313245;27;20460;-96
2023/10/03 10:51:39;;;;;;;;;;;;;;;;;;;;;
2023/10/03 11:02:02;;;;;;;;;;;;;;;;;;;;;
2023/10/03 11:05:30;;;;;;;;;;;;;;;;;;;;;
2023/10/03 11:09:12;;;;;;;1.35;0.47;;;;;;;28.18;60.70;100208.44;5309679;27;35474;-96
2023/10/03 11:16:13;;;;;;;0.25;0.22;;;;;;;28.38;60.71;100199.31;5086398;28;20083;-96
2023/10/03 11:19:03;;;;;;;0.57;0.52;;;;;;;28.57;60.72;100201.84;5166888;27;20058;-96
2023/10/03 11:22:11;;;;;;;;;;;;;;;;;;;;;
2023/10/03 11:25:19;;;;;;;0.20;0.20;;;;;;;28.47;60.72;100189.53;5218388;27;36321;-96
2023/10/03 11:28:32;;;;;;;0.45;0.30;;;;;;;28.34;60.71;100185.38;5196246;27;20054;-96
2023/10/03 11:38:42;;;;;;;;;;;;;;;;;;;;;
2023/10/03 11:51:00;;;;;;;0.37;0.08;;;;;;;28.76;60.73;100170.53;5286096;27;20148;-96
2023/10/03 11:56:48;;;;;;;0.70;0.45;;;;;;;28.69;60.74;100146.19;5242061;27;20421;-96
2023/10/03 11:59:32;;;;;;;0.00;0.00;;;;;;;28.78;60.74;100141.72;5265219;27;20116;-96
2023/10/03 12:02:26;;;;;;;0.40;0.40;;;;;;;28.93;60.75;100130.31;5265850;27;20077;-96
2023/10/03 12:05:42;;;;;;;1.10;0.73;;;;;;;28.99;60.74;100140.41;5283983;27;20410;-96
2023/10/03 12:11:45;;;;;;;0.55;0.47;;;;;;;28.87;60.74;100136.31;5250807;27;20091;-96
2023/10/03 12:14:36;;;;;;;0.08;0.08;;;;;;;29.10;60.76;100123.19;5310573;27;20045;-96
2023/10/03 12:17:33;;;;;;;1.05;0.95;;;;;;;29.09;60.74;100131.41;5271026;27;20078;-96
2023/10/03 12:20:38;;;;;;;0.00;0.00;;;;;;;29.16;60.75;100119.06;5301292;27;20836;-96
2023/10/03 12:26:17;;;;;;;0.10;0.10;;;;;;;29.10;60.75;100122.34;5265871;27;20179;-96
2023/10/03 12:29:32;;;;;;;;;;;;;;;;;;;;;
2023/10/03 12:32:41;;;;;;;1.55;1.37;;;;;;;29.01;60.75;100116.13;5301175;27;34470;-96
2023/10/03 12:35:19;;;;;;;0.10;0.10;;;;;;;28.95;60.75;100109.56;5217464;27;20116;-96
2023/10/03 12:38:17;;;;;;;0.80;0.45;;;;;;;28.82;60.74;100111.78;5214755;27;20146;-96